Main page
METAR-TAF:

METAR-TAF

Airports :

Gibraltar, Gibraltar

Gibraltar International Airport

latitude: 36-09N, longitude: 005-21W, elevation: 5 m

Current weather observation

The report was made 1 hour and 18 minutes ago, at 15:50 UTC
Wind 3 kt from the Southwest
Temperature 27°C
Humidity 62%
Pressure 1019 hPa
Visibility: 4000 m
Clear sky
fog in vicinity

METAR: LXGB 231550Z 23003KT 9999 4000E VCFG SKC 27/19 Q1019 NOSIG

Time: 19:08 (17:08 UTC)

Forecast

The report was made 2 hours and 47 minutes ago, at 14:21 UTC
Forecast valid from 23 at 15 UTC to 23 at 22 UTC
Wind 6 kt from variable directions
Visibility: 9000 m
Few clouds at a height of 100 ft
haze
Temporary
from 23 at 15 UTC to 23 at 22 UTC
Visibility: 2000 m
fog in vicinity
Probability 30% :
Temporary
from 23 at 15 UTC to 23 at 22 UTC
Visibility: 0500 m
Scattered clouds at a height lower than 100 ft
fog

TAF: LXGB 231421Z 2315/2322 VRB06KT 9000 HZ FEW001 TEMPO 2315/2322 2000 VCFG PROB30 TEMPO 2315/2322 0500 FG SCT000

Weather observations and forecasts of more than 4000 airports (METAR and TAF reports).

The available stations are represented by yellow and red dots on the map.

Hover mouse over dot to see the name of the station.

Then click to see weather observations and forecasts.

To change the map : click on the green buttons with a black cross to zoom in, on the green button with a dash to zoom out, or on the green arrows for adjacent maps.


METAR-TAF: